Lemmer, Netherlands
Current Conditions -  °F | °C
As of 6:25 PM on Thursday 30 Oct 2014 (Local Time) from EHLW Reporting Station
Haze Haze  
Wind Chill: 13°   Ceiling: 400
Heat Index: 13°   Visibility: 1.9mi
Dew Point: 12°   Wind: 9mph
Humidity: 94%   Direction: 170°S
Pressure: 30.15"   Gusts: NA
Location:  52.85°N, 5.71°E
Report Text: EHLW 301725Z AUTO 17008KT 3100 R23/P3000 BR OVC004 13/12 Q1021 YLO
Loading
Personal Weather Stations






























Interactive Weather Map
Tropical Storm Tracking
New forecast layout! Learn more

10-Day Weather Forecast

Advertisements
Track Severe Weather on mobile